Weather at Miami International Airport

Public forecast

Using degrees Fahrenheit for public forecast. Weather courtesy of forecast.io.

Current aviation weather report (METAR) for Miami International Airport

Retrieved 2021/08/04 14:53 UTC (54 minutes ago):

KMIA 041453Z VRB06KT 10SM SCT028 BKN032 BKN160 BKN250 31/24 A3007 RMK AO2 SLP181 CB DSNT SW-NW MOV E T03110244 53015

Aviation forecast (TAF) for Miami International Airport

Retrieved 2021/08/04 12:36 UTC (3 hours ago):

TAF KMIA 041134Z 0412/0518 15004KT P6SM FEW025 BKN200 FM041400 15007KT P6SM VCSH SCT030 SCT050 BKN150 TEMPO 0414/0417 BKN030 FM041700 15009KT P6SM SHRA VCTS SCT030CB BKN050 BKN150 TEMPO 0417/0421 5SM TSRA BKN030CB FM050100 15004KT P6SM SCT025 BKN150 FM051400 13008KT P6SM VCSH SCT025 BKN150